sensor_id;sensor_type;location;lat;lon;timestamp;P1;durP1;ratioP1;P2;durP2;ratioP2
7843;SDS011;3967;48.702;9.326;2022-12-07T00:01:17;5.40;;;4.60;;
7843;SDS011;3967;48.702;9.326;2022-12-07T00:03:51;4.37;;;3.97;;
7843;SDS011;3967;48.702;9.326;2022-12-07T00:06:20;5.10;;;4.53;;
7843;SDS011;3967;48.702;9.326;2022-12-07T00:08:47;5.63;;;5.07;;
7843;SDS011;3967;48.702;9.326;2022-12-07T00:11:15;4.90;;;4.43;;
7843;SDS011;3967;48.702;9.326;2022-12-07T00:13:44;6.37;;;4.87;;
7843;SDS011;3967;48.702;9.326;2022-12-07T00:16:13;5.80;;;5.03;;
7843;SDS011;3967;48.702;9.326;2022-12-07T00:18:41;7.00;;;5.20;;
7843;SDS011;3967;48.702;9.326;2022-12-07T00:21:18;7.27;;;5.47;;
7843;SDS011;3967;48.702;9.326;2022-12-07T00:23:53;8.47;;;5.63;;
7843;SDS011;3967;48.702;9.326;2022-12-07T00:28:49;6.20;;;5.60;;
7843;SDS011;3967;48.702;9.326;2022-12-07T00:31:18;6.53;;;5.40;;
7843;SDS011;3967;48.702;9.326;2022-12-07T00:33:47;6.63;;;5.13;;
7843;SDS011;3967;48.702;9.326;2022-12-07T00:36:15;7.07;;;6.03;;
7843;SDS011;3967;48.702;9.326;2022-12-07T00:38:51;7.67;;;6.10;;
7843;SDS011;3967;48.702;9.326;2022-12-07T00:41:19;8.00;;;5.73;;
7843;SDS011;3967;48.702;9.326;2022-12-07T00:43:47;7.97;;;6.20;;
7843;SDS011;3967;48.702;9.326;2022-12-07T00:46:15;6.77;;;6.03;;
7843;SDS011;3967;48.702;9.326;2022-12-07T00:48:43;6.77;;;6.03;;
7843;SDS011;3967;48.702;9.326;2022-12-07T00:51:10;7.23;;;6.10;;
7843;SDS011;3967;48.702;9.326;2022-12-07T00:53:38;8.73;;;6.33;;
7843;SDS011;3967;48.702;9.326;2022-12-07T00:56:07;7.07;;;6.10;;
7843;SDS011;3967;48.702;9.326;2022-12-07T00:58:35;6.60;;;5.73;;
7843;SDS011;3967;48.702;9.326;2022-12-07T01:01:02;6.77;;;6.10;;
7843;SDS011;3967;48.702;9.326;2022-12-07T01:03:30;7.23;;;6.03;;
7843;SDS011;3967;48.702;9.326;2022-12-07T01:05:58;8.20;;;6.37;;
7843;SDS011;3967;48.702;9.326;2022-12-07T01:08:25;8.10;;;6.83;;
7843;SDS011;3967;48.702;9.326;2022-12-07T01:11:04;9.13;;;7.20;;
7843;SDS011;3967;48.702;9.326;2022-12-07T01:13:33;9.77;;;7.83;;
7843;SDS011;3967;48.702;9.326;2022-12-07T01:16:01;9.77;;;7.17;;
7843;SDS011;3967;48.702;9.326;2022-12-07T01:18:30;10.43;;;7.43;;
7843;SDS011;3967;48.702;9.326;2022-12-07T01:23:25;10.77;;;7.60;;
7843;SDS011;3967;48.702;9.326;2022-12-07T01:25:55;9.23;;;8.07;;
7843;SDS011;3967;48.702;9.326;2022-12-07T01:28:25;9.73;;;7.70;;
7843;SDS011;3967;48.702;9.326;2022-12-07T01:31:06;8.67;;;7.63;;
7843;SDS011;3967;48.702;9.326;2022-12-07T01:33:36;7.87;;;6.43;;
7843;SDS011;3967;48.702;9.326;2022-12-07T01:36:04;9.17;;;7.50;;
7843;SDS011;3967;48.702;9.326;2022-12-07T01:38:34;9.33;;;7.70;;
7843;SDS011;3967;48.702;9.326;2022-12-07T01:41:02;10.67;;;7.53;;
7843;SDS011;3967;48.702;9.326;2022-12-07T01:43:30;8.67;;;7.30;;
7843;SDS011;3967;48.702;9.326;2022-12-07T01:45:58;8.33;;;7.33;;
7843;SDS011;3967;48.702;9.326;2022-12-07T01:48:32;11.53;;;8.30;;
7843;SDS011;3967;48.702;9.326;2022-12-07T01:51:05;9.77;;;7.83;;
7843;SDS011;3967;48.702;9.326;2022-12-07T01:53:36;7.93;;;7.13;;
7843;SDS011;3967;48.702;9.326;2022-12-07T01:56:05;9.90;;;8.07;;
7843;SDS011;3967;48.702;9.326;2022-12-07T01:58:36;11.13;;;9.10;;
7843;SDS011;3967;48.702;9.326;2022-12-07T02:01:03;10.53;;;7.97;;
7843;SDS011;3967;48.702;9.326;2022-12-07T02:03:32;14.63;;;9.00;;
7843;SDS011;3967;48.702;9.326;2022-12-07T02:06:04;12.07;;;8.50;;
7843;SDS011;3967;48.702;9.326;2022-12-07T02:08:32;12.37;;;8.90;;
7843;SDS011;3967;48.702;9.326;2022-12-07T02:11:02;12.07;;;9.20;;
7843;SDS011;3967;48.702;9.326;2022-12-07T02:13:31;13.23;;;9.70;;
7843;SDS011;3967;48.702;9.326;2022-12-07T02:21:34;8.73;;;7.00;;
7843;SDS011;3967;48.702;9.326;2022-12-07T02:29:49;11.20;;;8.57;;
7843;SDS011;3967;48.702;9.326;2022-12-07T02:41:17;11.90;;;8.40;;
7843;SDS011;3967;48.702;9.326;2022-12-07T02:46:22;12.73;;;9.10;;
7843;SDS011;3967;48.702;9.326;2022-12-07T02:48:53;10.60;;;8.23;;
7843;SDS011;3967;48.702;9.326;2022-12-07T02:51:21;12.13;;;8.37;;
7843;SDS011;3967;48.702;9.326;2022-12-07T02:53:48;10.80;;;8.10;;
7843;SDS011;3967;48.702;9.326;2022-12-07T03:01:36;13.03;;;9.53;;
7843;SDS011;3967;48.702;9.326;2022-12-07T03:07:11;12.07;;;8.80;;
7843;SDS011;3967;48.702;9.326;2022-12-07T03:12:42;12.53;;;7.97;;
7843;SDS011;3967;48.702;9.326;2022-12-07T03:15:18;12.10;;;9.10;;
7843;SDS011;3967;48.702;9.326;2022-12-07T03:18:06;10.13;;;7.67;;
7843;SDS011;3967;48.702;9.326;2022-12-07T03:20:34;13.67;;;9.40;;
7843;SDS011;3967;48.702;9.326;2022-12-07T03:23:04;12.33;;;8.83;;
7843;SDS011;3967;48.702;9.326;2022-12-07T03:25:38;11.40;;;8.40;;
7843;SDS011;3967;48.702;9.326;2022-12-07T03:28:07;11.47;;;7.87;;
7843;SDS011;3967;48.702;9.326;2022-12-07T03:30:38;10.33;;;7.83;;
7843;SDS011;3967;48.702;9.326;2022-12-07T03:33:20;10.43;;;7.90;;
7843;SDS011;3967;48.702;9.326;2022-12-07T03:38:42;11.03;;;8.57;;
7843;SDS011;3967;48.702;9.326;2022-12-07T03:41:16;13.47;;;8.73;;
7843;SDS011;3967;48.702;9.326;2022-12-07T03:43:48;12.77;;;9.43;;
7843;SDS011;3967;48.702;9.326;2022-12-07T03:46:29;11.37;;;8.07;;
7843;SDS011;3967;48.702;9.326;2022-12-07T03:57:11;10.17;;;8.23;;
7843;SDS011;3967;48.702;9.326;2022-12-07T03:59:38;11.67;;;8.30;;
7843;SDS011;3967;48.702;9.326;2022-12-07T04:02:06;9.73;;;7.77;;
7843;SDS011;3967;48.702;9.326;2022-12-07T04:04:34;9.87;;;7.60;;
7843;SDS011;3967;48.702;9.326;2022-12-07T04:07:01;12.13;;;9.00;;
7843;SDS011;3967;48.702;9.326;2022-12-07T04:09:28;10.83;;;8.33;;
7843;SDS011;3967;48.702;9.326;2022-12-07T04:11:55;12.30;;;8.60;;
7843;SDS011;3967;48.702;9.326;2022-12-07T04:14:21;10.87;;;8.53;;
7843;SDS011;3967;48.702;9.326;2022-12-07T04:16:49;12.07;;;9.20;;
7843;SDS011;3967;48.702;9.326;2022-12-07T04:19:18;12.27;;;9.03;;
7843;SDS011;3967;48.702;9.326;2022-12-07T04:21:55;11.57;;;8.63;;
7843;SDS011;3967;48.702;9.326;2022-12-07T04:24:23;10.53;;;8.33;;
7843;SDS011;3967;48.702;9.326;2022-12-07T04:26:49;12.40;;;9.57;;
7843;SDS011;3967;48.702;9.326;2022-12-07T04:29:17;11.70;;;8.77;;
7843;SDS011;3967;48.702;9.326;2022-12-07T04:31:44;12.57;;;8.43;;
7843;SDS011;3967;48.702;9.326;2022-12-07T04:34:11;15.77;;;9.90;;
7843;SDS011;3967;48.702;9.326;2022-12-07T04:36:39;11.40;;;8.70;;
7843;SDS011;3967;48.702;9.326;2022-12-07T04:39:17;12.97;;;9.07;;
7843;SDS011;3967;48.702;9.326;2022-12-07T04:41:46;14.20;;;9.33;;
7843;SDS011;3967;48.702;9.326;2022-12-07T04:44:13;11.53;;;8.37;;
7843;SDS011;3967;48.702;9.326;2022-12-07T04:46:41;11.00;;;8.10;;
7843;SDS011;3967;48.702;9.326;2022-12-07T04:49:12;12.73;;;9.23;;
7843;SDS011;3967;48.702;9.326;2022-12-07T04:51:39;11.57;;;8.30;;
7843;SDS011;3967;48.702;9.326;2022-12-07T04:54:07;11.43;;;8.50;;
7843;SDS011;3967;48.702;9.326;2022-12-07T04:56:34;10.23;;;8.00;;
7843;SDS011;3967;48.702;9.326;2022-12-07T04:59:01;11.80;;;8.67;;
7843;SDS011;3967;48.702;9.326;2022-12-07T05:01:31;12.00;;;8.57;;
7843;SDS011;3967;48.702;9.326;2022-12-07T05:03:59;12.07;;;8.10;;
7843;SDS011;3967;48.702;9.326;2022-12-07T05:06:25;10.50;;;7.87;;
7843;SDS011;3967;48.702;9.326;2022-12-07T05:08:52;11.37;;;8.63;;
7843;SDS011;3967;48.702;9.326;2022-12-07T05:11:19;12.90;;;8.53;;
7843;SDS011;3967;48.702;9.326;2022-12-07T05:14:19;14.13;;;9.77;;
7843;SDS011;3967;48.702;9.326;2022-12-07T05:16:47;12.57;;;9.20;;
7843;SDS011;3967;48.702;9.326;2022-12-07T05:19:16;13.27;;;9.23;;
7843;SDS011;3967;48.702;9.326;2022-12-07T05:21:44;13.93;;;9.67;;
7843;SDS011;3967;48.702;9.326;2022-12-07T05:24:12;16.80;;;10.80;;
7843;SDS011;3967;48.702;9.326;2022-12-07T05:26:41;17.07;;;10.13;;
7843;SDS011;3967;48.702;9.326;2022-12-07T05:29:10;14.93;;;10.73;;
7843;SDS011;3967;48.702;9.326;2022-12-07T05:31:38;15.07;;;10.50;;
7843;SDS011;3967;48.702;9.326;2022-12-07T05:34:04;12.33;;;8.63;;
7843;SDS011;3967;48.702;9.326;2022-12-07T05:36:31;12.97;;;9.67;;
7843;SDS011;3967;48.702;9.326;2022-12-07T05:38:58;13.77;;;10.03;;
7843;SDS011;3967;48.702;9.326;2022-12-07T05:41:25;13.47;;;9.47;;
7843;SDS011;3967;48.702;9.326;2022-12-07T05:44:10;20.03;;;13.40;;
7843;SDS011;3967;48.702;9.326;2022-12-07T05:46:37;19.83;;;13.33;;
7843;SDS011;3967;48.702;9.326;2022-12-07T05:49:04;13.77;;;10.07;;
7843;SDS011;3967;48.702;9.326;2022-12-07T05:51:31;13.20;;;9.83;;
7843;SDS011;3967;48.702;9.326;2022-12-07T05:53:57;13.47;;;9.70;;
7843;SDS011;3967;48.702;9.326;2022-12-07T05:56:24;15.80;;;11.40;;
7843;SDS011;3967;48.702;9.326;2022-12-07T05:58:52;15.90;;;10.80;;
7843;SDS011;3967;48.702;9.326;2022-12-07T06:01:38;14.33;;;11.07;;
7843;SDS011;3967;48.702;9.326;2022-12-07T06:04:04;15.87;;;11.23;;
7843;SDS011;3967;48.702;9.326;2022-12-07T06:06:31;13.13;;;10.23;;
7843;SDS011;3967;48.702;9.326;2022-12-07T06:08:58;13.50;;;9.87;;
7843;SDS011;3967;48.702;9.326;2022-12-07T06:11:24;12.97;;;9.90;;
7843;SDS011;3967;48.702;9.326;2022-12-07T06:14:10;15.50;;;10.10;;
7843;SDS011;3967;48.702;9.326;2022-12-07T06:16:36;15.30;;;9.37;;
7843;SDS011;3967;48.702;9.326;2022-12-07T06:19:03;14.13;;;10.20;;
7843;SDS011;3967;48.702;9.326;2022-12-07T06:21:30;15.87;;;10.33;;
7843;SDS011;3967;48.702;9.326;2022-12-07T06:23:57;16.87;;;10.30;;
7843;SDS011;3967;48.702;9.326;2022-12-07T06:26:23;16.47;;;10.43;;
7843;SDS011;3967;48.702;9.326;2022-12-07T06:28:50;17.17;;;10.37;;
7843;SDS011;3967;48.702;9.326;2022-12-07T06:31:17;15.07;;;9.90;;
7843;SDS011;3967;48.702;9.326;2022-12-07T06:33:43;17.37;;;10.37;;
7843;SDS011;3967;48.702;9.326;2022-12-07T06:36:10;12.93;;;9.13;;
7843;SDS011;3967;48.702;9.326;2022-12-07T06:38:37;15.00;;;9.60;;
7843;SDS011;3967;48.702;9.326;2022-12-07T06:41:04;13.87;;;9.80;;
7843;SDS011;3967;48.702;9.326;2022-12-07T06:43:31;13.07;;;9.13;;
7843;SDS011;3967;48.702;9.326;2022-12-07T06:45:58;12.20;;;8.47;;
7843;SDS011;3967;48.702;9.326;2022-12-07T06:48:24;12.63;;;8.03;;
7843;SDS011;3967;48.702;9.326;2022-12-07T06:50:51;10.70;;;8.13;;
7843;SDS011;3967;48.702;9.326;2022-12-07T06:53:20;10.67;;;7.10;;
7843;SDS011;3967;48.702;9.326;2022-12-07T06:55:48;16.20;;;9.20;;
7843;SDS011;3967;48.702;9.326;2022-12-07T06:58:14;11.73;;;8.07;;
7843;SDS011;3967;48.702;9.326;2022-12-07T07:00:42;13.13;;;8.67;;
7843;SDS011;3967;48.702;9.326;2022-12-07T07:03:10;13.97;;;9.73;;
7843;SDS011;3967;48.702;9.326;2022-12-07T07:05:36;15.07;;;10.23;;
7843;SDS011;3967;48.702;9.326;2022-12-07T07:08:03;15.70;;;9.80;;
7843;SDS011;3967;48.702;9.326;2022-12-07T07:10:47;11.90;;;9.10;;
7843;SDS011;3967;48.702;9.326;2022-12-07T07:13:14;14.23;;;9.23;;
7843;SDS011;3967;48.702;9.326;2022-12-07T07:15:41;11.43;;;8.23;;
7843;SDS011;3967;48.702;9.326;2022-12-07T07:18:08;12.20;;;9.07;;
7843;SDS011;3967;48.702;9.326;2022-12-07T07:20:34;13.60;;;9.53;;
7843;SDS011;3967;48.702;9.326;2022-12-07T07:23:01;11.50;;;8.57;;
7843;SDS011;3967;48.702;9.326;2022-12-07T07:25:28;14.37;;;8.97;;
7843;SDS011;3967;48.702;9.326;2022-12-07T07:27:55;14.83;;;9.57;;
7843;SDS011;3967;48.702;9.326;2022-12-07T07:30:22;12.50;;;9.27;;
7843;SDS011;3967;48.702;9.326;2022-12-07T07:32:49;13.20;;;8.90;;
7843;SDS011;3967;48.702;9.326;2022-12-07T07:35:16;16.80;;;9.40;;
7843;SDS011;3967;48.702;9.326;2022-12-07T07:37:43;13.73;;;8.83;;
7843;SDS011;3967;48.702;9.326;2022-12-07T07:40:10;13.27;;;8.23;;
7843;SDS011;3967;48.702;9.326;2022-12-07T07:42:36;15.10;;;8.87;;
7843;SDS011;3967;48.702;9.326;2022-12-07T07:45:03;13.77;;;7.90;;
7843;SDS011;3967;48.702;9.326;2022-12-07T07:47:30;12.97;;;8.33;;
7843;SDS011;3967;48.702;9.326;2022-12-07T07:49:57;10.60;;;7.70;;
7843;SDS011;3967;48.702;9.326;2022-12-07T07:52:24;11.70;;;7.50;;
7843;SDS011;3967;48.702;9.326;2022-12-07T07:54:50;12.10;;;7.73;;
7843;SDS011;3967;48.702;9.326;2022-12-07T07:57:17;11.03;;;7.87;;
7843;SDS011;3967;48.702;9.326;2022-12-07T07:59:44;12.60;;;8.37;;
7843;SDS011;3967;48.702;9.326;2022-12-07T08:02:15;11.83;;;8.07;;
7843;SDS011;3967;48.702;9.326;2022-12-07T08:04:43;12.73;;;8.27;;
7843;SDS011;3967;48.702;9.326;2022-12-07T08:07:11;9.40;;;7.17;;
7843;SDS011;3967;48.702;9.326;2022-12-07T08:09:40;10.07;;;7.60;;
7843;SDS011;3967;48.702;9.326;2022-12-07T08:12:07;13.93;;;8.57;;
7843;SDS011;3967;48.702;9.326;2022-12-07T08:14:34;9.37;;;7.50;;
7843;SDS011;3967;48.702;9.326;2022-12-07T08:17:01;11.17;;;8.73;;
7843;SDS011;3967;48.702;9.326;2022-12-07T08:19:27;13.27;;;9.60;;
7843;SDS011;3967;48.702;9.326;2022-12-07T08:21:55;14.80;;;9.03;;
7843;SDS011;3967;48.702;9.326;2022-12-07T08:24:22;12.73;;;8.80;;
7843;SDS011;3967;48.702;9.326;2022-12-07T08:26:49;10.90;;;8.40;;
7843;SDS011;3967;48.702;9.326;2022-12-07T08:29:16;10.97;;;8.80;;
7843;SDS011;3967;48.702;9.326;2022-12-07T08:31:43;16.43;;;8.93;;
7843;SDS011;3967;48.702;9.326;2022-12-07T08:34:10;11.70;;;8.27;;
7843;SDS011;3967;48.702;9.326;2022-12-07T08:36:38;12.70;;;8.30;;
7843;SDS011;3967;48.702;9.326;2022-12-07T08:39:05;10.23;;;8.00;;
7843;SDS011;3967;48.702;9.326;2022-12-07T08:41:52;17.03;;;9.43;;
7843;SDS011;3967;48.702;9.326;2022-12-07T08:44:18;13.23;;;8.27;;
7843;SDS011;3967;48.702;9.326;2022-12-07T08:46:50;12.10;;;7.93;;
7843;SDS011;3967;48.702;9.326;2022-12-07T08:49:27;11.33;;;6.93;;
7843;SDS011;3967;48.702;9.326;2022-12-07T08:51:59;9.17;;;6.77;;
7843;SDS011;3967;48.702;9.326;2022-12-07T08:54:26;10.57;;;6.53;;
7843;SDS011;3967;48.702;9.326;2022-12-07T08:56:54;9.80;;;6.80;;
7843;SDS011;3967;48.702;9.326;2022-12-07T08:59:25;10.93;;;6.37;;
7843;SDS011;3967;48.702;9.326;2022-12-07T09:01:53;7.13;;;5.80;;
7843;SDS011;3967;48.702;9.326;2022-12-07T09:04:19;10.27;;;7.47;;
7843;SDS011;3967;48.702;9.326;2022-12-07T09:06:46;9.10;;;5.77;;
7843;SDS011;3967;48.702;9.326;2022-12-07T09:09:14;7.40;;;6.03;;
7843;SDS011;3967;48.702;9.326;2022-12-07T09:11:41;8.57;;;5.80;;
7843;SDS011;3967;48.702;9.326;2022-12-07T09:14:08;8.90;;;7.00;;
7843;SDS011;3967;48.702;9.326;2022-12-07T09:16:35;9.10;;;6.10;;
7843;SDS011;3967;48.702;9.326;2022-12-07T09:19:02;6.20;;;5.17;;
7843;SDS011;3967;48.702;9.326;2022-12-07T09:21:28;8.67;;;5.27;;
7843;SDS011;3967;48.702;9.326;2022-12-07T09:23:55;8.93;;;6.00;;
7843;SDS011;3967;48.702;9.326;2022-12-07T09:26:22;9.40;;;5.97;;
7843;SDS011;3967;48.702;9.326;2022-12-07T09:28:49;7.20;;;5.47;;
7843;SDS011;3967;48.702;9.326;2022-12-07T09:31:16;7.43;;;5.97;;
7843;SDS011;3967;48.702;9.326;2022-12-07T09:33:55;7.13;;;5.77;;
7843;SDS011;3967;48.702;9.326;2022-12-07T09:36:23;8.47;;;5.70;;
7843;SDS011;3967;48.702;9.326;2022-12-07T09:38:50;8.97;;;6.30;;
7843;SDS011;3967;48.702;9.326;2022-12-07T09:41:17;9.37;;;7.27;;
7843;SDS011;3967;48.702;9.326;2022-12-07T09:43:44;7.23;;;6.13;;
7843;SDS011;3967;48.702;9.326;2022-12-07T09:46:13;11.80;;;6.63;;
7843;SDS011;3967;48.702;9.326;2022-12-07T09:48:42;8.53;;;6.20;;
7843;SDS011;3967;48.702;9.326;2022-12-07T09:51:17;8.00;;;6.23;;
7843;SDS011;3967;48.702;9.326;2022-12-07T09:53:50;7.47;;;5.83;;
7843;SDS011;3967;48.702;9.326;2022-12-07T09:56:19;9.83;;;6.57;;
7843;SDS011;3967;48.702;9.326;2022-12-07T09:58:46;8.77;;;6.70;;
7843;SDS011;3967;48.702;9.326;2022-12-07T10:01:18;9.17;;;6.80;;
7843;SDS011;3967;48.702;9.326;2022-12-07T10:03:50;7.90;;;5.97;;
7843;SDS011;3967;48.702;9.326;2022-12-07T10:06:19;9.47;;;6.87;;
7843;SDS011;3967;48.702;9.326;2022-12-07T10:08:46;10.00;;;6.27;;
7843;SDS011;3967;48.702;9.326;2022-12-07T10:11:13;6.50;;;5.13;;
7843;SDS011;3967;48.702;9.326;2022-12-07T10:13:43;9.10;;;6.17;;
7843;SDS011;3967;48.702;9.326;2022-12-07T10:16:37;8.90;;;5.93;;
7843;SDS011;3967;48.702;9.326;2022-12-07T10:19:38;7.77;;;5.57;;
7843;SDS011;3967;48.702;9.326;2022-12-07T10:24:37;6.73;;;5.67;;
7843;SDS011;3967;48.702;9.326;2022-12-07T10:27:26;7.73;;;5.93;;
7843;SDS011;3967;48.702;9.326;2022-12-07T10:29:58;8.03;;;6.10;;
7843;SDS011;3967;48.702;9.326;2022-12-07T10:32:35;6.47;;;5.57;;
7843;SDS011;3967;48.702;9.326;2022-12-07T10:37:50;8.00;;;5.07;;
7843;SDS011;3967;48.702;9.326;2022-12-07T10:43:05;6.77;;;4.73;;
7843;SDS011;3967;48.702;9.326;2022-12-07T10:51:12;6.07;;;5.03;;
7843;SDS011;3967;48.702;9.326;2022-12-07T10:57:47;6.37;;;4.93;;
7843;SDS011;3967;48.702;9.326;2022-12-07T11:03:05;5.43;;;4.73;;
7843;SDS011;3967;48.702;9.326;2022-12-07T11:05:45;9.43;;;5.00;;
7843;SDS011;3967;48.702;9.326;2022-12-07T11:08:44;7.37;;;4.87;;
7843;SDS011;3967;48.702;9.326;2022-12-07T11:11:23;5.77;;;4.20;;
7843;SDS011;3967;48.702;9.326;2022-12-07T11:19:39;7.40;;;5.07;;
7843;SDS011;3967;48.702;9.326;2022-12-07T11:30:45;5.10;;;4.33;;
7843;SDS011;3967;48.702;9.326;2022-12-07T11:34:02;6.97;;;5.10;;
7843;SDS011;3967;48.702;9.326;2022-12-07T11:38:58;6.53;;;5.00;;
7843;SDS011;3967;48.702;9.326;2022-12-07T11:41:29;10.57;;;5.07;;
7843;SDS011;3967;48.702;9.326;2022-12-07T11:44:07;4.93;;;4.37;;
7843;SDS011;3967;48.702;9.326;2022-12-07T11:52:14;7.30;;;5.03;;
7843;SDS011;3967;48.702;9.326;2022-12-07T11:54:52;6.40;;;4.40;;
7843;SDS011;3967;48.702;9.326;2022-12-07T11:57:41;6.60;;;3.93;;
7843;SDS011;3967;48.702;9.326;2022-12-07T12:00:15;7.37;;;4.40;;
7843;SDS011;3967;48.702;9.326;2022-12-07T12:02:46;4.57;;;4.10;;
7843;SDS011;3967;48.702;9.326;2022-12-07T12:05:38;6.30;;;4.50;;
7843;SDS011;3967;48.702;9.326;2022-12-07T12:20:05;12.57;;;5.43;;
7843;SDS011;3967;48.702;9.326;2022-12-07T12:25:23;7.23;;;4.60;;
7843;SDS011;3967;48.702;9.326;2022-12-07T12:27:57;7.80;;;4.70;;
7843;SDS011;3967;48.702;9.326;2022-12-07T12:33:16;5.93;;;4.63;;
7843;SDS011;3967;48.702;9.326;2022-12-07T12:38:48;7.40;;;4.20;;
7843;SDS011;3967;48.702;9.326;2022-12-07T12:41:58;5.80;;;4.30;;
7843;SDS011;3967;48.702;9.326;2022-12-07T12:51:48;5.67;;;3.73;;
7843;SDS011;3967;48.702;9.326;2022-12-07T12:57:06;7.67;;;4.20;;
7843;SDS011;3967;48.702;9.326;2022-12-07T13:15:39;4.83;;;3.50;;
7843;SDS011;3967;48.702;9.326;2022-12-07T13:20:55;7.07;;;4.50;;
7843;SDS011;3967;48.702;9.326;2022-12-07T13:23:32;7.70;;;4.70;;
7843;SDS011;3967;48.702;9.326;2022-12-07T13:29:13;5.03;;;4.50;;
7843;SDS011;3967;48.702;9.326;2022-12-07T13:31:56;7.93;;;5.00;;
7843;SDS011;3967;48.702;9.326;2022-12-07T13:34:32;8.57;;;5.53;;
7843;SDS011;3967;48.702;9.326;2022-12-07T13:37:10;8.23;;;5.77;;
7843;SDS011;3967;48.702;9.326;2022-12-07T13:39:45;6.80;;;5.37;;
7843;SDS011;3967;48.702;9.326;2022-12-07T13:44:52;7.20;;;5.43;;
7843;SDS011;3967;48.702;9.326;2022-12-07T13:50:20;7.57;;;5.17;;
7843;SDS011;3967;48.702;9.326;2022-12-07T13:52:54;6.40;;;5.73;;
7843;SDS011;3967;48.702;9.326;2022-12-07T13:55:22;5.97;;;4.77;;
7843;SDS011;3967;48.702;9.326;2022-12-07T13:57:50;6.27;;;5.00;;
7843;SDS011;3967;48.702;9.326;2022-12-07T14:00:20;5.07;;;4.57;;
7843;SDS011;3967;48.702;9.326;2022-12-07T14:03:02;5.40;;;4.77;;
7843;SDS011;3967;48.702;9.326;2022-12-07T14:05:46;5.13;;;4.60;;
7843;SDS011;3967;48.702;9.326;2022-12-07T14:08:29;5.33;;;4.83;;
7843;SDS011;3967;48.702;9.326;2022-12-07T14:10:57;5.57;;;4.60;;
7843;SDS011;3967;48.702;9.326;2022-12-07T14:13:35;4.80;;;4.20;;
7843;SDS011;3967;48.702;9.326;2022-12-07T14:16:24;6.70;;;4.87;;
7843;SDS011;3967;48.702;9.326;2022-12-07T14:18:51;9.63;;;5.33;;
7843;SDS011;3967;48.702;9.326;2022-12-07T14:21:20;6.80;;;5.23;;
7843;SDS011;3967;48.702;9.326;2022-12-07T14:26:36;6.80;;;4.73;;
7843;SDS011;3967;48.702;9.326;2022-12-07T14:31:54;5.57;;;4.60;;
7843;SDS011;3967;48.702;9.326;2022-12-07T14:34:23;6.63;;;4.93;;
7843;SDS011;3967;48.702;9.326;2022-12-07T14:36:50;5.83;;;4.63;;
7843;SDS011;3967;48.702;9.326;2022-12-07T14:39:17;6.40;;;5.40;;
7843;SDS011;3967;48.702;9.326;2022-12-07T14:41:44;7.57;;;5.50;;
7843;SDS011;3967;48.702;9.326;2022-12-07T14:44:17;6.20;;;4.70;;
7843;SDS011;3967;48.702;9.326;2022-12-07T14:46:54;5.80;;;5.17;;
7843;SDS011;3967;48.702;9.326;2022-12-07T14:49:41;5.57;;;4.73;;
7843;SDS011;3967;48.702;9.326;2022-12-07T14:52:11;5.93;;;4.60;;
7843;SDS011;3967;48.702;9.326;2022-12-07T14:55:02;6.47;;;4.60;;
7843;SDS011;3967;48.702;9.326;2022-12-07T14:57:30;6.53;;;4.93;;
7843;SDS011;3967;48.702;9.326;2022-12-07T14:59:56;7.33;;;4.63;;
7843;SDS011;3967;48.702;9.326;2022-12-07T15:02:23;4.77;;;4.33;;
7843;SDS011;3967;48.702;9.326;2022-12-07T15:04:50;5.90;;;4.67;;
7843;SDS011;3967;48.702;9.326;2022-12-07T15:07:20;5.70;;;4.23;;
7843;SDS011;3967;48.702;9.326;2022-12-07T15:09:48;5.47;;;4.10;;
7843;SDS011;3967;48.702;9.326;2022-12-07T15:12:15;7.47;;;4.43;;
7843;SDS011;3967;48.702;9.326;2022-12-07T15:14:41;4.00;;;3.60;;
7843;SDS011;3967;48.702;9.326;2022-12-07T15:17:09;5.50;;;3.70;;
7843;SDS011;3967;48.702;9.326;2022-12-07T15:19:53;5.10;;;4.17;;
7843;SDS011;3967;48.702;9.326;2022-12-07T15:22:19;4.63;;;3.87;;
7843;SDS011;3967;48.702;9.326;2022-12-07T15:24:46;4.70;;;4.20;;
7843;SDS011;3967;48.702;9.326;2022-12-07T15:27:13;6.37;;;4.43;;
7843;SDS011;3967;48.702;9.326;2022-12-07T15:29:40;5.70;;;4.63;;
7843;SDS011;3967;48.702;9.326;2022-12-07T15:32:06;4.53;;;4.13;;
7843;SDS011;3967;48.702;9.326;2022-12-07T15:34:33;5.77;;;3.40;;
7843;SDS011;3967;48.702;9.326;2022-12-07T15:37:05;4.23;;;3.77;;
7843;SDS011;3967;48.702;9.326;2022-12-07T15:39:33;4.17;;;3.67;;
7843;SDS011;3967;48.702;9.326;2022-12-07T15:42:00;3.67;;;3.30;;
7843;SDS011;3967;48.702;9.326;2022-12-07T15:44:28;6.13;;;4.20;;
7843;SDS011;3967;48.702;9.326;2022-12-07T15:47:13;3.83;;;3.53;;
7843;SDS011;3967;48.702;9.326;2022-12-07T15:49:40;4.80;;;4.20;;
7843;SDS011;3967;48.702;9.326;2022-12-07T15:52:07;4.80;;;3.93;;
7843;SDS011;3967;48.702;9.326;2022-12-07T15:54:33;7.43;;;4.30;;
7843;SDS011;3967;48.702;9.326;2022-12-07T15:57:00;5.23;;;4.20;;
7843;SDS011;3967;48.702;9.326;2022-12-07T15:59:27;6.80;;;4.50;;
7843;SDS011;3967;48.702;9.326;2022-12-07T16:01:55;7.13;;;4.50;;
7843;SDS011;3967;48.702;9.326;2022-12-07T16:04:22;5.43;;;4.30;;
7843;SDS011;3967;48.702;9.326;2022-12-07T16:06:49;6.53;;;5.37;;
7843;SDS011;3967;48.702;9.326;2022-12-07T16:09:17;6.00;;;4.90;;
7843;SDS011;3967;48.702;9.326;2022-12-07T16:11:44;6.17;;;5.33;;
7843;SDS011;3967;48.702;9.326;2022-12-07T16:14:11;7.93;;;5.53;;
7843;SDS011;3967;48.702;9.326;2022-12-07T16:16:38;6.23;;;5.13;;
7843;SDS011;3967;48.702;9.326;2022-12-07T16:19:06;7.40;;;5.23;;
7843;SDS011;3967;48.702;9.326;2022-12-07T16:21:34;6.80;;;4.97;;
7843;SDS011;3967;48.702;9.326;2022-12-07T16:24:01;10.87;;;4.87;;
7843;SDS011;3967;48.702;9.326;2022-12-07T16:26:29;6.37;;;5.27;;
7843;SDS011;3967;48.702;9.326;2022-12-07T16:28:56;6.87;;;5.33;;
7843;SDS011;3967;48.702;9.326;2022-12-07T16:31:24;7.10;;;5.47;;
7843;SDS011;3967;48.702;9.326;2022-12-07T16:33:53;7.53;;;5.67;;
7843;SDS011;3967;48.702;9.326;2022-12-07T16:36:22;9.07;;;5.73;;
7843;SDS011;3967;48.702;9.326;2022-12-07T16:39:11;9.23;;;6.10;;
7843;SDS011;3967;48.702;9.326;2022-12-07T16:41:37;18.10;;;9.27;;
7843;SDS011;3967;48.702;9.326;2022-12-07T16:44:05;10.10;;;6.77;;
7843;SDS011;3967;48.702;9.326;2022-12-07T16:46:36;13.73;;;8.27;;
7843;SDS011;3967;48.702;9.326;2022-12-07T16:49:03;10.60;;;6.57;;
7843;SDS011;3967;48.702;9.326;2022-12-07T16:51:30;7.93;;;5.70;;
7843;SDS011;3967;48.702;9.326;2022-12-07T16:53:57;8.53;;;5.80;;
7843;SDS011;3967;48.702;9.326;2022-12-07T16:56:24;6.07;;;5.47;;
7843;SDS011;3967;48.702;9.326;2022-12-07T16:58:52;9.37;;;5.60;;
7843;SDS011;3967;48.702;9.326;2022-12-07T17:01:20;7.13;;;5.70;;
7843;SDS011;3967;48.702;9.326;2022-12-07T17:03:50;8.93;;;5.73;;
7843;SDS011;3967;48.702;9.326;2022-12-07T17:06:21;6.77;;;5.23;;
7843;SDS011;3967;48.702;9.326;2022-12-07T17:08:50;7.67;;;5.83;;
7843;SDS011;3967;48.702;9.326;2022-12-07T17:11:19;6.93;;;5.17;;
7843;SDS011;3967;48.702;9.326;2022-12-07T17:13:51;6.77;;;5.63;;
7843;SDS011;3967;48.702;9.326;2022-12-07T17:16:37;12.07;;;6.07;;
7843;SDS011;3967;48.702;9.326;2022-12-07T17:19:08;8.03;;;5.40;;
7843;SDS011;3967;48.702;9.326;2022-12-07T17:21:36;8.57;;;6.13;;
7843;SDS011;3967;48.702;9.326;2022-12-07T17:24:04;7.93;;;5.97;;
7843;SDS011;3967;48.702;9.326;2022-12-07T17:26:32;8.60;;;6.37;;
7843;SDS011;3967;48.702;9.326;2022-12-07T17:29:01;8.33;;;6.13;;
7843;SDS011;3967;48.702;9.326;2022-12-07T17:31:29;11.17;;;8.07;;
7843;SDS011;3967;48.702;9.326;2022-12-07T17:33:57;11.13;;;7.97;;
7843;SDS011;3967;48.702;9.326;2022-12-07T17:36:25;13.97;;;10.03;;
7843;SDS011;3967;48.702;9.326;2022-12-07T17:38:54;15.10;;;9.53;;
7843;SDS011;3967;48.702;9.326;2022-12-07T17:41:22;12.13;;;7.07;;
7843;SDS011;3967;48.702;9.326;2022-12-07T17:44:11;12.33;;;7.97;;
7843;SDS011;3967;48.702;9.326;2022-12-07T17:46:42;12.03;;;8.47;;
7843;SDS011;3967;48.702;9.326;2022-12-07T17:49:10;14.53;;;9.70;;
7843;SDS011;3967;48.702;9.326;2022-12-07T17:51:37;9.23;;;7.43;;
7843;SDS011;3967;48.702;9.326;2022-12-07T17:54:22;15.33;;;10.20;;
7843;SDS011;3967;48.702;9.326;2022-12-07T17:56:49;14.63;;;10.43;;
7843;SDS011;3967;48.702;9.326;2022-12-07T17:59:16;17.00;;;12.17;;
7843;SDS011;3967;48.702;9.326;2022-12-07T18:01:43;16.03;;;10.70;;
7843;SDS011;3967;48.702;9.326;2022-12-07T18:04:11;13.07;;;8.60;;